createdAt,value
2023-02-19T00:01:14.637Z,3.90
2023-02-19T00:03:42.601Z,3.50
2023-02-19T00:06:11.375Z,3.63
2023-02-19T00:08:38.943Z,3.43
2023-02-19T00:11:12.851Z,3.30
2023-02-19T00:13:41.619Z,3.20
2023-02-19T00:16:09.723Z,3.25
2023-02-19T00:18:36.461Z,3.30
2023-02-19T00:21:04.030Z,3.13
2023-02-19T00:23:31.187Z,3.60
2023-02-19T00:26:17.145Z,2.90
2023-02-19T00:28:45.349Z,3.17
2023-02-19T00:31:21.489Z,2.70
2023-02-19T00:33:49.503Z,2.70
2023-02-19T00:36:16.571Z,2.67
2023-02-19T00:38:43.950Z,2.80
2023-02-19T00:41:21.362Z,3.00
2023-02-19T00:43:54.909Z,2.83
2023-02-19T00:46:30.330Z,2.50
2023-02-19T00:48:58.149Z,2.65
2023-02-19T00:51:27.205Z,2.65
2023-02-19T00:53:54.085Z,2.80
2023-02-19T00:56:21.069Z,2.72
2023-02-19T00:58:48.202Z,2.70
2023-02-19T01:01:15.472Z,2.75
2023-02-19T01:03:42.086Z,3.10
2023-02-19T01:06:10.967Z,2.90
2023-02-19T01:08:37.931Z,2.85
2023-02-19T01:11:06.212Z,3.23
2023-02-19T01:13:33.562Z,3.20
2023-02-19T01:16:15.151Z,2.97
2023-02-19T01:18:42.505Z,2.78
2023-02-19T01:21:13.289Z,2.80
2023-02-19T01:23:40.182Z,3.00
2023-02-19T01:26:09.486Z,3.03
2023-02-19T01:28:35.968Z,2.90
2023-02-19T01:31:08.670Z,3.10
2023-02-19T01:33:35.376Z,2.72
2023-02-19T01:36:06.183Z,2.50
2023-02-19T01:38:33.305Z,2.83
2023-02-19T01:41:05.034Z,2.42
2023-02-19T01:43:54.744Z,2.40
2023-02-19T01:46:21.382Z,2.70
2023-02-19T01:48:47.861Z,2.50
2023-02-19T01:51:19.980Z,2.60
2023-02-19T01:53:52.255Z,2.40
2023-02-19T01:56:21.043Z,2.42
2023-02-19T01:58:47.819Z,2.60
2023-02-19T02:01:14.524Z,2.30
2023-02-19T02:03:44.968Z,2.50
2023-02-19T02:06:15.612Z,2.20
2023-02-19T02:09:00.656Z,2.10
2023-02-19T02:11:27.762Z,2.15
2023-02-19T02:13:54.976Z,2.30
2023-02-19T02:16:39.726Z,2.70
2023-02-19T02:19:16.588Z,2.55
2023-02-19T02:22:05.628Z,2.78
2023-02-19T02:24:50.788Z,2.35
2023-02-19T02:27:29.340Z,1.90
2023-02-19T02:30:01.901Z,2.20
2023-02-19T02:32:37.538Z,2.17
2023-02-19T02:35:10.069Z,2.38
2023-02-19T02:37:41.419Z,2.40
2023-02-19T02:40:10.856Z,2.30
2023-02-19T02:42:39.983Z,2.05
2023-02-19T02:45:37.232Z,2.20
2023-02-19T02:48:27.098Z,2.17
2023-02-19T02:51:13.465Z,2.00
2023-02-19T02:53:58.590Z,2.20
2023-02-19T02:56:26.439Z,2.10
2023-02-19T02:58:55.350Z,2.10
2023-02-19T03:01:43.140Z,2.53
2023-02-19T03:04:30.299Z,2.05
2023-02-19T03:07:00.370Z,1.87
2023-02-19T03:09:40.585Z,1.98
2023-02-19T03:12:31.754Z,2.30
2023-02-19T03:15:21.359Z,2.00
2023-02-19T03:18:19.484Z,1.83
2023-02-19T03:20:51.615Z,2.20
2023-02-19T03:23:20.577Z,1.98
2023-02-19T03:26:06.167Z,2.10
2023-02-19T03:28:54.708Z,2.00
2023-02-19T03:31:25.004Z,2.00
2023-02-19T03:33:56.047Z,2.00
2023-02-19T03:36:26.402Z,1.75
2023-02-19T03:39:04.377Z,2.15
2023-02-19T03:41:42.592Z,1.73
2023-02-19T03:44:27.243Z,1.65
2023-02-19T03:47:03.363Z,1.57
2023-02-19T03:49:37.240Z,1.40
2023-02-19T03:52:21.678Z,1.50
2023-02-19T03:55:17.869Z,1.70
2023-02-19T03:57:51.594Z,1.40
2023-02-19T04:00:26.672Z,1.40
2023-02-19T04:03:02.124Z,1.60
2023-02-19T04:05:37.246Z,1.50
2023-02-19T04:08:14.634Z,1.40
2023-02-19T04:10:42.101Z,1.40
2023-02-19T04:13:22.466Z,1.30
2023-02-19T04:15:51.963Z,1.40
2023-02-19T04:18:22.857Z,1.50
2023-02-19T04:20:50.480Z,1.30
2023-02-19T04:23:22.960Z,1.38
2023-02-19T04:25:54.697Z,1.60
2023-02-19T04:28:21.740Z,1.73
2023-02-19T04:30:48.322Z,1.70
2023-02-19T04:33:14.922Z,2.10
2023-02-19T04:35:41.359Z,1.80
2023-02-19T04:38:08.248Z,2.53
2023-02-19T04:40:34.690Z,1.90
2023-02-19T04:43:01.128Z,1.60
2023-02-19T04:45:27.665Z,1.60
2023-02-19T04:47:54.127Z,1.70
2023-02-19T04:50:20.624Z,1.87
2023-02-19T04:52:47.065Z,1.80
2023-02-19T04:55:13.584Z,1.85
2023-02-19T04:57:39.985Z,1.90
2023-02-19T05:00:08.063Z,2.00
2023-02-19T05:02:34.674Z,2.03
2023-02-19T05:05:01.260Z,2.10
2023-02-19T05:07:27.677Z,2.30
2023-02-19T05:09:54.104Z,2.10
2023-02-19T05:12:20.944Z,2.00
2023-02-19T05:14:47.610Z,2.10
2023-02-19T05:17:14.080Z,2.65
2023-02-19T05:19:40.487Z,2.30
2023-02-19T05:22:06.860Z,2.00
2023-02-19T05:24:33.330Z,2.60
2023-02-19T05:26:59.830Z,2.50
2023-02-19T05:29:26.408Z,2.28
2023-02-19T05:31:52.967Z,2.00
2023-02-19T05:34:19.432Z,2.30
2023-02-19T05:36:45.948Z,2.25
2023-02-19T05:39:12.557Z,3.50
2023-02-19T05:41:39.384Z,2.08
2023-02-19T05:44:05.900Z,2.65
2023-02-19T05:46:32.595Z,2.85
2023-02-19T05:48:59.349Z,2.30
2023-02-19T05:51:27.308Z,2.07
2023-02-19T05:53:54.010Z,2.30
2023-02-19T05:56:33.989Z,3.22
2023-02-19T05:59:06.807Z,2.72
2023-02-19T06:01:35.242Z,2.53
2023-02-19T06:04:01.739Z,2.80
2023-02-19T06:06:28.588Z,3.05
2023-02-19T06:08:55.123Z,2.92
2023-02-19T06:11:21.630Z,2.55
2023-02-19T06:13:50.160Z,2.33
2023-02-19T06:16:17.768Z,2.57
2023-02-19T06:18:45.222Z,4.13
2023-02-19T06:21:12.715Z,2.28
2023-02-19T06:23:39.987Z,2.92
2023-02-19T06:26:13.681Z,2.97
2023-02-19T06:28:41.463Z,2.90
2023-02-19T06:31:09.871Z,3.10
2023-02-19T06:33:40.392Z,3.70
2023-02-19T06:36:12.568Z,3.60
2023-02-19T06:38:39.374Z,4.05
2023-02-19T06:41:07.032Z,4.23
2023-02-19T06:43:34.536Z,3.67
2023-02-19T06:46:02.757Z,3.13
2023-02-19T06:48:30.500Z,3.78
2023-02-19T06:50:56.999Z,3.72
2023-02-19T06:53:23.790Z,4.30
2023-02-19T06:56:05.552Z,3.60
2023-02-19T06:58:33.413Z,3.65
2023-02-19T07:01:00.354Z,3.90
2023-02-19T07:03:26.894Z,3.75
2023-02-19T07:05:54.437Z,3.17
2023-02-19T07:08:21.214Z,3.42
2023-02-19T07:10:55.705Z,3.00
2023-02-19T07:13:22.902Z,3.30
2023-02-19T07:15:51.941Z,3.00
2023-02-19T07:18:19.272Z,3.40
2023-02-19T07:20:45.719Z,3.55
2023-02-19T07:23:12.223Z,3.95
2023-02-19T07:25:39.266Z,4.07
2023-02-19T07:28:06.450Z,3.40
2023-02-19T07:30:32.950Z,4.20
2023-02-19T07:32:59.428Z,6.65
2023-02-19T07:35:26.051Z,4.40
2023-02-19T07:37:52.462Z,4.25
2023-02-19T07:40:18.943Z,3.90
2023-02-19T07:42:45.541Z,4.07
2023-02-19T07:45:11.953Z,4.68
2023-02-19T07:47:38.372Z,4.28
2023-02-19T07:50:05.108Z,4.68
2023-02-19T07:52:33.986Z,5.15
2023-02-19T07:55:00.412Z,4.27
2023-02-19T07:57:31.292Z,5.15
2023-02-19T07:59:58.840Z,5.40
2023-02-19T08:02:43.593Z,4.65
2023-02-19T08:05:10.570Z,3.97
2023-02-19T08:07:37.667Z,5.13
2023-02-19T08:10:23.748Z,4.30
2023-02-19T08:13:16.392Z,4.10
2023-02-19T08:15:43.110Z,4.30
2023-02-19T08:18:10.548Z,4.20
2023-02-19T08:20:37.313Z,4.50
2023-02-19T08:23:03.992Z,3.78
2023-02-19T08:25:30.633Z,3.95
2023-02-19T08:27:57.097Z,3.92
2023-02-19T08:30:24.332Z,4.15
2023-02-19T08:32:50.923Z,4.53
2023-02-19T08:35:17.708Z,13.27
2023-02-19T08:37:44.148Z,6.40
2023-02-19T08:40:11.696Z,4.75
2023-02-19T08:42:38.311Z,6.97
2023-02-19T08:45:05.628Z,5.67
2023-02-19T08:47:34.190Z,5.55
2023-02-19T08:50:00.608Z,5.22
2023-02-19T08:52:27.054Z,5.70
2023-02-19T08:54:53.657Z,5.22
2023-02-19T08:57:20.235Z,6.87
2023-02-19T08:59:46.652Z,5.80
2023-02-19T09:02:13.491Z,5.47
2023-02-19T09:04:40.375Z,6.13
2023-02-19T09:07:07.843Z,5.43
2023-02-19T09:09:37.216Z,5.70
2023-02-19T09:12:08.450Z,7.13
2023-02-19T09:14:35.764Z,5.50
2023-02-19T09:17:03.394Z,5.45
2023-02-19T09:19:29.851Z,5.20
2023-02-19T09:21:56.610Z,6.00
2023-02-19T09:24:23.685Z,6.95
2023-02-19T09:26:54.548Z,8.63
2023-02-19T09:29:22.412Z,6.57
2023-02-19T09:31:48.969Z,6.15
2023-02-19T09:34:15.609Z,5.30
2023-02-19T09:36:42.156Z,5.93
2023-02-19T09:39:10.377Z,5.35
2023-02-19T09:41:46.437Z,5.55
2023-02-19T09:44:18.260Z,5.18
2023-02-19T09:46:49.932Z,4.90
2023-02-19T09:49:21.218Z,4.75
2023-02-19T09:51:56.379Z,4.90
2023-02-19T09:54:26.550Z,5.07
2023-02-19T09:56:57.241Z,4.43
2023-02-19T09:59:27.269Z,4.67
2023-02-19T10:02:04.291Z,6.20
2023-02-19T10:04:30.745Z,6.53
2023-02-19T10:07:03.375Z,3.63
2023-02-19T10:09:30.933Z,4.20
2023-02-19T10:11:58.753Z,3.97
2023-02-19T10:14:36.692Z,3.80
2023-02-19T10:17:06.015Z,3.95
2023-02-19T10:19:34.587Z,4.22
2023-02-19T10:22:04.211Z,4.38
2023-02-19T10:24:33.025Z,4.50
2023-02-19T10:26:59.622Z,4.53
2023-02-19T10:29:27.264Z,4.97
2023-02-19T10:32:24.015Z,5.10
2023-02-19T10:35:09.385Z,4.80
2023-02-19T10:37:44.054Z,4.87
2023-02-19T10:40:19.701Z,5.60
2023-02-19T10:42:52.039Z,5.05
2023-02-19T10:45:24.463Z,5.18
2023-02-19T10:47:52.886Z,4.57
2023-02-19T10:50:30.112Z,4.20
2023-02-19T10:52:58.857Z,4.30
2023-02-19T10:55:36.780Z,4.10
2023-02-19T10:58:24.389Z,4.53
2023-02-19T11:01:12.244Z,4.60
2023-02-19T11:03:39.107Z,5.07
2023-02-19T11:06:11.314Z,5.45
2023-02-19T11:08:48.421Z,5.53
2023-02-19T11:11:32.249Z,5.57
2023-02-19T11:14:02.656Z,6.20
2023-02-19T11:16:42.074Z,7.03
2023-02-19T11:19:29.241Z,8.02
2023-02-19T11:21:56.721Z,8.80
2023-02-19T11:24:30.979Z,6.38
2023-02-19T11:27:02.997Z,6.45
2023-02-19T11:29:34.616Z,6.03
2023-02-19T11:32:26.125Z,6.40
2023-02-19T11:35:13.287Z,6.25
2023-02-19T11:38:03.031Z,6.50
2023-02-19T11:41:00.405Z,6.85
2023-02-19T11:43:47.597Z,7.83
2023-02-19T11:46:39.239Z,7.18
2023-02-19T11:49:37.417Z,7.45
2023-02-19T11:52:03.800Z,7.18
2023-02-19T11:54:49.286Z,6.60
2023-02-19T11:57:27.644Z,6.90
2023-02-19T11:59:57.037Z,7.65
2023-02-19T12:02:51.306Z,6.13
2023-02-19T12:05:33.824Z,6.43
2023-02-19T12:08:34.542Z,6.40
2023-02-19T12:11:32.099Z,6.23
2023-02-19T12:14:23.345Z,6.38
2023-02-19T12:17:01.803Z,5.75
2023-02-19T12:19:44.828Z,6.80
2023-02-19T12:22:31.302Z,6.07
2023-02-19T12:25:23.796Z,5.77
2023-02-19T12:28:04.939Z,5.85
2023-02-19T12:30:59.774Z,4.78
2023-02-19T12:34:16.176Z,5.10
2023-02-19T12:36:50.839Z,5.20
2023-02-19T12:39:29.238Z,4.80
2023-02-19T12:42:36.057Z,6.45
2023-02-19T12:45:17.732Z,6.03
2023-02-19T12:47:53.232Z,5.43
2023-02-19T12:50:25.336Z,5.30
2023-02-19T12:53:23.425Z,6.50
2023-02-19T12:55:54.897Z,4.65
2023-02-19T12:58:32.549Z,4.80
2023-02-19T13:00:59.979Z,5.03
2023-02-19T13:03:34.825Z,5.35
2023-02-19T13:06:45.434Z,5.67
2023-02-19T13:09:15.920Z,5.30
2023-02-19T13:11:56.252Z,7.82
2023-02-19T13:14:28.384Z,4.53
2023-02-19T13:17:02.793Z,5.60
2023-02-19T13:19:33.256Z,4.93
2023-02-19T13:23:08.472Z,6.53
2023-02-19T13:26:20.749Z,5.13
2023-02-19T13:29:17.960Z,4.88
2023-02-19T13:32:03.367Z,4.35
2023-02-19T13:34:48.770Z,4.33
2023-02-19T13:37:19.254Z,4.07
2023-02-19T13:39:52.916Z,3.70
2023-02-19T13:45:37.441Z,3.80
2023-02-19T13:48:28.294Z,3.63
2023-02-19T13:51:16.756Z,4.88
2023-02-19T13:53:47.920Z,3.92
2023-02-19T13:56:31.917Z,6.75
2023-02-19T13:59:01.368Z,6.32
2023-02-19T14:01:56.975Z,3.87
2023-02-19T14:04:40.151Z,4.18
2023-02-19T14:07:06.612Z,4.45
2023-02-19T14:09:36.076Z,4.32
2023-02-19T14:12:14.331Z,4.15
2023-02-19T14:14:49.364Z,4.90
2023-02-19T14:17:45.573Z,5.60
2023-02-19T14:20:14.750Z,4.30
2023-02-19T14:22:55.451Z,4.57
2023-02-19T14:25:31.016Z,4.20
2023-02-19T14:28:29.931Z,4.80
2023-02-19T14:31:34.080Z,4.75
2023-02-19T14:34:04.897Z,5.80
2023-02-19T14:36:48.553Z,10.35
2023-02-19T14:39:41.139Z,4.30
2023-02-19T14:42:22.702Z,7.10
2023-02-19T14:44:57.239Z,11.88
2023-02-19T14:47:29.412Z,4.80
2023-02-19T14:50:08.625Z,2.92
2023-02-19T14:52:57.550Z,3.80
2023-02-19T14:55:32.808Z,5.57
2023-02-19T14:58:06.137Z,4.45
2023-02-19T15:00:41.069Z,4.50
2023-02-19T15:03:25.762Z,5.57
2023-02-19T15:06:00.520Z,4.45
2023-02-19T15:08:52.968Z,2.50
2023-02-19T15:11:22.601Z,2.30
2023-02-19T15:14:16.931Z,3.85
2023-02-19T15:17:15.907Z,5.78
2023-02-19T15:19:48.854Z,5.68
2023-02-19T15:22:30.680Z,3.33
2023-02-19T15:25:03.317Z,2.75
2023-02-19T15:27:30.063Z,1.90
2023-02-19T15:29:59.907Z,3.90
2023-02-19T15:32:33.085Z,2.60
2023-02-19T15:35:26.526Z,2.60
2023-02-19T15:37:55.023Z,3.00
2023-02-19T15:40:30.555Z,2.80
2023-02-19T15:43:03.494Z,2.40
2023-02-19T15:45:41.639Z,2.92
2023-02-19T15:48:46.931Z,3.03
2023-02-19T15:51:57.916Z,8.40
2023-02-19T15:54:30.857Z,5.30
2023-02-19T15:57:07.065Z,3.88
2023-02-19T16:00:08.756Z,5.30
2023-02-19T16:02:36.053Z,7.57
2023-02-19T16:05:15.543Z,4.05
2023-02-19T16:07:45.035Z,3.55
2023-02-19T16:10:26.501Z,3.78
2023-02-19T16:13:08.194Z,3.60
2023-02-19T16:15:39.969Z,3.80
2023-02-19T16:18:33.403Z,3.75
2023-02-19T16:21:02.808Z,3.50
2023-02-19T16:23:32.767Z,5.38
2023-02-19T16:26:03.132Z,15.13
2023-02-19T16:28:50.164Z,9.03
2023-02-19T16:31:35.371Z,7.72
2023-02-19T16:34:20.745Z,4.38
2023-02-19T16:36:50.567Z,4.05
2023-02-19T16:39:18.975Z,4.00
2023-02-19T16:41:48.176Z,4.63
2023-02-19T16:44:20.628Z,4.70
2023-02-19T16:46:51.884Z,4.40
2023-02-19T16:49:18.901Z,3.63
2023-02-19T16:51:46.884Z,3.63
2023-02-19T16:54:13.674Z,4.27
2023-02-19T16:56:40.169Z,4.78
2023-02-19T16:59:07.609Z,4.65
2023-02-19T17:01:36.024Z,5.78
2023-02-19T17:04:09.482Z,6.63
2023-02-19T17:06:37.802Z,7.77
2023-02-19T17:09:06.454Z,3.92
2023-02-19T17:11:33.098Z,4.22
2023-02-19T17:13:59.578Z,3.78
2023-02-19T17:16:28.516Z,4.10
2023-02-19T17:18:55.594Z,4.37
2023-02-19T17:21:27.980Z,4.78
2023-02-19T17:23:54.572Z,4.13
2023-02-19T17:26:28.015Z,3.83
2023-02-19T17:29:02.378Z,4.47
2023-02-19T17:31:29.285Z,9.37
2023-02-19T17:33:56.189Z,7.15
2023-02-19T17:36:26.843Z,4.13
2023-02-19T17:38:54.185Z,8.00
2023-02-19T17:41:20.672Z,6.90
2023-02-19T17:43:47.587Z,6.83
2023-02-19T17:46:23.844Z,26.77
2023-02-19T17:48:50.807Z,11.45
2023-02-19T17:51:17.425Z,12.48
2023-02-19T17:53:46.610Z,6.68
2023-02-19T17:56:22.754Z,6.93
2023-02-19T17:58:49.254Z,5.97
2023-02-19T18:01:15.955Z,6.13
2023-02-19T18:03:42.736Z,5.97
2023-02-19T18:06:09.316Z,6.50
2023-02-19T18:08:35.910Z,6.97
2023-02-19T18:11:03.003Z,8.20
2023-02-19T18:13:29.821Z,6.80
2023-02-19T18:15:56.256Z,6.65
2023-02-19T18:18:25.545Z,7.78
2023-02-19T18:20:52.017Z,6.83
2023-02-19T18:23:20.546Z,4.85
2023-02-19T18:25:47.121Z,6.65
2023-02-19T18:28:14.904Z,6.45
2023-02-19T18:30:41.442Z,5.40
2023-02-19T18:33:10.989Z,5.40
2023-02-19T18:35:38.426Z,6.13
2023-02-19T18:38:05.526Z,6.40
2023-02-19T18:40:31.998Z,5.80
2023-02-19T18:42:58.787Z,5.18
2023-02-19T18:45:26.095Z,5.03
2023-02-19T18:47:52.632Z,5.95
2023-02-19T18:50:19.682Z,5.07
2023-02-19T18:52:46.369Z,5.72
2023-02-19T18:55:13.216Z,5.53
2023-02-19T18:57:39.780Z,6.03
2023-02-19T19:00:07.990Z,5.75
2023-02-19T19:02:48.234Z,5.30
2023-02-19T19:05:23.569Z,5.07
2023-02-19T19:07:51.829Z,5.70
2023-02-19T19:10:18.928Z,7.63
2023-02-19T19:12:45.645Z,5.72
2023-02-19T19:15:12.146Z,5.72
2023-02-19T19:17:40.559Z,7.55
2023-02-19T19:20:08.317Z,6.90
2023-02-19T19:22:34.693Z,6.07
2023-02-19T19:25:01.314Z,5.72
2023-02-19T19:27:27.709Z,6.40
2023-02-19T19:29:54.374Z,6.32
2023-02-19T19:32:20.902Z,5.95
2023-02-19T19:34:47.582Z,6.17
2023-02-19T19:37:14.042Z,5.45
2023-02-19T19:39:43.231Z,8.65
2023-02-19T19:42:11.845Z,6.10
2023-02-19T19:44:38.266Z,5.57
2023-02-19T19:47:04.841Z,5.93
2023-02-19T19:49:31.441Z,6.22
2023-02-19T19:52:01.009Z,11.10
2023-02-19T19:54:28.183Z,18.40
2023-02-19T19:56:54.695Z,6.70
2023-02-19T19:59:23.129Z,7.20
2023-02-19T20:02:01.783Z,5.70
2023-02-19T20:04:29.672Z,8.73
2023-02-19T20:06:58.600Z,7.85
2023-02-19T20:09:25.537Z,7.13
2023-02-19T20:11:53.763Z,7.43
2023-02-19T20:14:21.670Z,9.82
2023-02-19T20:16:48.438Z,9.18
2023-02-19T20:19:16.466Z,8.70
2023-02-19T20:21:47.283Z,11.13
2023-02-19T20:24:25.967Z,9.23
2023-02-19T20:27:02.455Z,8.98
2023-02-19T20:29:32.178Z,11.98
2023-02-19T20:32:00.213Z,9.52
2023-02-19T20:34:27.180Z,10.43
2023-02-19T20:36:54.117Z,8.20
2023-02-19T20:39:21.550Z,10.00
2023-02-19T20:41:51.889Z,9.50
2023-02-19T20:44:19.319Z,8.80
2023-02-19T20:46:48.096Z,8.32
2023-02-19T20:49:16.957Z,9.53
2023-02-19T20:51:44.566Z,8.18
2023-02-19T20:54:11.057Z,8.77
2023-02-19T20:56:37.536Z,7.75
2023-02-19T20:59:04.126Z,7.50
2023-02-19T21:01:30.556Z,7.43
2023-02-19T21:03:57.020Z,6.97
2023-02-19T21:06:24.659Z,7.85
2023-02-19T21:08:51.127Z,7.88
2023-02-19T21:11:17.781Z,7.40
2023-02-19T21:13:44.273Z,7.47
2023-02-19T21:16:11.147Z,7.85
2023-02-19T21:18:37.830Z,7.68
2023-02-19T21:21:04.351Z,7.57
2023-02-19T21:23:30.829Z,7.45
2023-02-19T21:25:57.351Z,7.10
2023-02-19T21:28:24.632Z,6.93
2023-02-19T21:30:51.160Z,7.35
2023-02-19T21:33:17.815Z,6.72
2023-02-19T21:35:45.208Z,6.70
2023-02-19T21:38:11.706Z,8.10
2023-02-19T21:40:38.253Z,7.13
2023-02-19T21:43:04.880Z,7.95
2023-02-19T21:45:31.393Z,7.43
2023-02-19T21:47:57.939Z,7.57
2023-02-19T21:50:24.479Z,6.90
2023-02-19T21:52:50.958Z,7.40
2023-02-19T21:55:17.403Z,7.47
2023-02-19T21:57:43.840Z,8.23
2023-02-19T22:00:10.831Z,7.88
2023-02-19T22:02:37.327Z,8.07
2023-02-19T22:05:03.988Z,8.45
2023-02-19T22:07:30.639Z,7.93
2023-02-19T22:09:57.050Z,8.48
2023-02-19T22:12:23.548Z,8.15
2023-02-19T22:14:50.003Z,8.50
2023-02-19T22:17:16.459Z,8.60
2023-02-19T22:19:42.916Z,8.10
2023-02-19T22:22:09.512Z,7.53
2023-02-19T22:24:35.984Z,7.45
2023-02-19T22:27:02.480Z,8.23
2023-02-19T22:29:28.983Z,8.85
2023-02-19T22:31:55.647Z,8.48
2023-02-19T22:34:22.319Z,8.40
2023-02-19T22:36:48.811Z,8.65
2023-02-19T22:39:26.628Z,8.87
2023-02-19T22:41:53.417Z,8.50
2023-02-19T22:44:19.958Z,8.18
2023-02-19T22:47:04.639Z,7.85
2023-02-19T22:49:31.248Z,8.68
2023-02-19T22:52:03.118Z,8.63
2023-02-19T22:54:29.570Z,7.95
2023-02-19T22:56:56.548Z,8.10
2023-02-19T22:59:23.225Z,8.18
2023-02-19T23:01:50.365Z,7.50
2023-02-19T23:04:17.117Z,7.67
2023-02-19T23:06:45.348Z,7.57
2023-02-19T23:09:18.329Z,8.48
2023-02-19T23:11:45.654Z,7.78
2023-02-19T23:14:13.500Z,8.27
2023-02-19T23:16:39.894Z,8.50
2023-02-19T23:19:09.466Z,8.18
2023-02-19T23:21:35.979Z,6.72
2023-02-19T23:24:02.387Z,6.72
2023-02-19T23:26:28.861Z,6.00
2023-02-19T23:28:55.805Z,5.90
2023-02-19T23:31:22.371Z,6.40
2023-02-19T23:33:49.190Z,5.95
2023-02-19T23:36:15.871Z,6.18
2023-02-19T23:38:46.809Z,6.18
2023-02-19T23:41:15.308Z,5.90
2023-02-19T23:43:42.023Z,5.80
2023-02-19T23:46:09.508Z,5.70
2023-02-19T23:48:36.020Z,5.35
2023-02-19T23:51:02.700Z,6.25
2023-02-19T23:53:29.232Z,5.13
2023-02-19T23:55:55.976Z,5.32
2023-02-19T23:58:22.459Z,5.63
